Latest Conditions
At L.F.Wade Int. Airport
Recorded at 6:55 am
Mostly Cloudy
Temp.: 
26°C/79°F
Humidity: 
78%
Wind: 
SSW 11KT
or 13mph
Island Observations
Observations
Thursday, July 24, 2014

Observations are in local time and taken at least once an hour, or upon the start and end of specified events such as showers and thunderstorms.

Time Sky / Weather Wind Speed/Gusts Temp. R.H. Pressure
     knots (mph)  °C (°F)  %  mb / "Hg
 06:55 Mostly Cloudy  SSW 11/0 (13/0) 26(79) 78 1021 / 30.16
 05:55 Mostly Cloudy  SSW 11/0 (13/0) 26(79) 78 1021 / 30.15
 04:55 Mostly Cloudy Showers SW 9/0 (10/0) 26(79) 78 1021 / 30.15
 03:55 Mostly Cloudy  SW 8/0 (9/0) 26(79) 77 1021 / 30.15
 02:55 Mostly Cloudy  SW 7/0 (8/0) 26(79) 82 1021 / 30.15
 01:55 Mostly Cloudy  SSW 6/0 (7/0) 26(79) 80 1022 / 30.17
 00:55 Partly Cloudy  SW 8/0 (9/0) 26(79) 78 1022 / 30.18
 23:55 Mostly Cloudy  SW 9/0 (10/0) 26(80) 78 1022 / 30.19
 22:55 Mostly Cloudy  WSW 7/0 (8/0) 27(81) 76 1023 / 30.20
 21:55 Mostly Cloudy  W 8/0 (9/0) 27(80) 75 1022 / 30.19
 20:55 Mostly Cloudy  W 9/0 (10/0) 27(81) 70 1022 / 30.19
 19:55 Mostly Cloudy  W 9/0 (10/0) 28(82) 75 1022 / 30.18
 18:55 Mostly Cloudy  W 10/0 (12/0) 28(83) 69 1022 / 30.18
 17:55 Mostly Cloudy  W 13/0 (15/0) 29(84) 68 1022 / 30.17
 16:55 Mostly Cloudy  W 11/0 (13/0) 29(84) 71 1022 / 30.17
 15:55 Partly Cloudy  W 12/0 (14/0) 29(85) 70 1022 / 30.18
 14:55 Partly Cloudy Showers W 13/0 (15/0) 29(85) 70 1022 / 30.18
 13:55 Mostly Cloudy  W 12/0 (14/0) 29(85) 70 1022 / 30.19
 12:55 Mostly Cloudy Showers W 11/0 (13/0) 29(84) 72 1023 / 30.20
 11:55 Mostly Cloudy  W 11/0 (13/0) 28(82) 75 1023 / 30.20
 10:55 Mostly Cloudy  W 11/0 (13/0) 28(83) 72 1023 / 30.21
 09:55 Mostly Cloudy  W 11/0 (13/0) 28(83) 75 1023 / 30.20
 08:55 Mostly Cloudy Showers W 12/0 (14/0) 27(81) 77 1023 / 30.20
 07:55 Mostly Cloudy  W 10/0 (12/0) 27(81) 78 1022 / 30.19
Observations from our AWOS sites are available here (password and username are both 'guest').